Time;durP1;ratioP1;P1;durP2;ratioP2;P2;SDS_P1;SDS_P2;PMS_P1;PMS_P2;Temp;Humidity;BMP_temperature;BMP_pressure;BME280_temperature;BME280_humidity;BME280_pressure;Samples;Min_cycle;Max_cycle;Signal;HPM_P1;HPM_P2
2022/12/23 17:00:34;;;;;;;22.60;10.40;;;;;;;5.71;78.56;99263.83;30813;1347;3011866;-67
2022/12/23 17:03:03;;;;;;;21.70;9.50;;;;;;;6.20;76.81;99266.34;24417;1339;3028480;-64
2022/12/23 17:05:32;;;;;;;23.80;11.50;;;;;;;6.79;74.56;99259.09;24437;1333;3028511;-65
2022/12/23 17:08:01;;;;;;;27.10;12.80;;;;;;;7.01;73.51;99257.13;24398;1337;3049639;-69
2022/12/23 17:10:30;;;;;;;32.20;14.80;;;;;;;6.71;73.70;99256.52;24440;1329;3026226;-68
2022/12/23 17:12:59;;;;;;;35.90;15.50;;;;;;;6.57;74.43;99261.87;23748;1334;4394656;-66
2022/12/23 17:15:28;;;;;;;27.70;14.30;;;;;;;6.44;74.80;99263.52;24454;1337;3052684;-69
2022/12/23 17:17:57;;;;;;;32.40;14.80;;;;;;;6.28;75.27;99262.19;24526;1327;3028624;-68
2022/12/23 17:20:26;;;;;;;30.70;14.20;;;;;;;6.15;76.22;99257.89;24425;1337;3052574;-67
2022/12/23 17:22:56;;;;;;;30.30;15.00;;;;;;;6.02;76.44;99259.01;24626;1327;3025512;-69
2022/12/23 17:25:25;;;;;;;31.60;14.40;;;;;;;5.86;77.12;99258.64;24475;1336;3056215;-66
2022/12/23 17:27:55;;;;;;;36.00;15.70;;;;;;;5.78;77.55;99256.73;24463;1329;3026381;-67
2022/12/23 17:30:24;;;;;;;33.40;15.90;;;;;;;5.64;78.43;99258.89;24448;1329;3049566;-69
2022/12/23 17:32:54;;;;;;;32.60;15.10;;;;;;;5.66;78.29;99254.14;24447;1327;3026472;-67
2022/12/23 17:35:24;;;;;;;35.80;17.80;;;;;;;5.52;78.96;99252.84;24474;1334;3068690;-63
2022/12/23 17:37:53;;;;;;;32.30;15.60;;;;;;;5.44;79.45;99250.72;24485;1334;3028915;-65
2022/12/23 17:40:22;;;;;;;23.30;11.90;;;;;;;5.44;79.55;99254.23;24495;1333;3028428;-67
2022/12/23 17:42:51;;;;;;;32.10;11.70;;;;;;;5.96;78.30;99248.14;24489;1326;3067506;-72
2022/12/23 17:45:25;;;;;;;27.00;12.80;;;;;;;6.56;75.40;99240.70;24514;1327;3026139;-66
2022/12/23 17:47:54;;;;;;;28.60;13.20;;;;;;;6.70;74.42;99239.34;24572;1334;3049780;-68
2022/12/23 17:50:32;;;;;;;34.60;16.70;;;;;;;6.60;74.59;99241.36;24512;1326;3026801;-64
2022/12/23 17:53:02;;;;;;;39.90;16.90;;;;;;;6.23;75.64;99245.34;25394;1334;3050094;-63
2022/12/23 17:55:31;;;;;;;41.90;17.70;;;;;;;6.09;76.25;99249.30;25384;1327;3026521;-64
2022/12/23 17:58:00;;;;;;;37.80;16.80;;;;;;;5.93;76.96;99247.39;25377;1334;3068373;-64
2022/12/23 18:00:28;;;;;;;42.80;18.00;;;;;;;5.81;77.55;99246.71;25379;1340;3026370;-65
2022/12/23 18:02:58;;;;;;;39.70;17.70;;;;;;;5.70;78.00;99248.73;25399;1334;3049121;-64
2022/12/23 18:05:28;;;;;;;34.20;16.90;;;;;;;5.62;78.38;99249.26;25108;1333;3026338;-65
2022/12/23 18:07:58;;;;;;;35.50;17.50;;;;;;;5.61;78.52;99243.89;24596;1323;3052424;-67
2022/12/23 18:10:30;;;;;;;38.60;18.80;;;;;;;5.64;78.12;99245.52;24525;1333;3026565;-66
2022/12/23 18:13:01;;;;;;;39.60;18.60;;;;;;;5.40;79.06;99246.58;24596;1333;3025829;-63
2022/12/23 18:15:32;;;;;;;39.80;19.20;;;;;;;5.28;79.55;99242.19;24540;1328;3026388;-67
2022/12/23 18:18:04;;;;;;;32.30;14.80;;;;;;;5.22;80.21;99246.63;24450;1336;3028034;-67
2022/12/23 18:20:35;;;;;;;33.10;13.90;;;;;;;5.77;78.59;99250.35;24541;1333;3054983;-63
2022/12/23 18:23:05;;;;;;;33.50;15.30;;;;;;;6.10;76.86;99253.42;24527;1327;3028031;-66
2022/12/23 18:25:34;;;;;;;33.10;15.30;;;;;;;6.31;75.97;99258.56;24470;1334;3029147;-65
2022/12/23 18:28:03;;;;;;;41.70;17.10;;;;;;;6.12;75.96;99254.39;24518;1333;3026246;-63
2022/12/23 18:32:42;;;;;;;37.30;18.30;;;;;;;5.89;77.08;99250.34;30757;1328;3018515;-64
2022/12/23 18:35:24;;;;;;;36.80;18.50;;;;;;;5.83;77.15;99248.50;24379;1342;3028490;-63
2022/12/23 18:37:53;;;;;;;43.00;18.90;;;;;;;5.70;77.57;99245.95;24468;1336;3050187;-67
2022/12/23 18:40:22;;;;;;;42.30;18.20;;;;;;;5.54;78.36;99249.27;24451;1333;3028800;-65
2022/12/23 18:42:51;;;;;;;35.20;16.20;;;;;;;5.51;78.37;99246.77;24453;1328;3068142;-62
2022/12/23 18:45:43;;;;;;;37.50;17.30;;;;;;;5.39;78.72;99246.45;23851;1336;3028576;-66
2022/12/23 18:48:12;;;;;;;40.00;18.50;;;;;;;5.28;79.48;99252.12;24507;1318;3052054;-65
2022/12/23 18:50:42;;;;;;;44.80;18.40;;;;;;;5.19;79.95;99255.10;24569;1339;3030656;-65
2022/12/23 18:53:20;;;;;;;34.00;14.20;;;;;;;5.19;80.01;99256.45;24552;1326;3053730;-64
2022/12/23 18:55:50;;;;;;;31.10;13.00;;;;;;;5.74;78.65;99256.89;24514;1326;3048739;-62
2022/12/23 18:58:19;;;;;;;31.50;15.10;;;;;;;6.12;76.26;99259.42;24482;1334;3026326;-64
2022/12/23 19:00:49;;;;;;;36.90;17.00;;;;;;;6.18;76.09;99261.58;24483;1327;3028665;-66
2022/12/23 19:03:36;;;;;;;38.40;17.50;;;;;;;6.25;75.70;99261.26;24498;1326;3047604;-66
2022/12/23 19:06:06;;;;;;;43.40;18.20;;;;;;;6.02;76.25;99259.14;24478;1335;3069615;-63
2022/12/23 19:08:35;;;;;;;36.80;16.60;;;;;;;5.82;76.77;99265.40;24484;1341;3027480;-64
2022/12/23 19:11:09;;;;;;;39.90;17.40;;;;;;;5.59;77.99;99263.12;24617;1342;3028410;-62
2022/12/23 19:13:38;;;;;;;40.00;17.50;;;;;;;5.66;77.68;99259.17;24486;1334;3026456;-63
2022/12/23 19:16:13;;;;;;;36.70;15.80;;;;;;;5.45;78.52;99259.70;24515;1327;3028753;-64
2022/12/23 19:18:44;;;;;;;36.80;16.40;;;;;;;5.40;78.91;99262.00;24507;1329;3057203;-63
2022/12/23 19:21:15;;;;;;;38.30;17.30;;;;;;;5.36;79.16;99261.11;24479;1327;3026265;-64
2022/12/23 19:23:44;;;;;;;37.00;16.40;;;;;;;5.30;79.32;99254.46;24533;1330;3026066;-65
2022/12/23 19:26:13;;;;;;;33.90;16.00;;;;;;;5.31;79.48;99255.98;24473;1328;3028282;-64
2022/12/23 19:28:42;;;;;;;24.60;11.40;;;;;;;5.27;79.45;99253.90;24540;1337;3051233;-63
2022/12/23 19:31:12;;;;;;;26.00;10.80;;;;;;;5.76;78.24;99254.58;24567;1327;3026413;-64
2022/12/23 19:33:43;;;;;;;32.70;14.10;;;;;;;6.24;76.30;99248.08;24485;1341;3056733;-68
2022/12/23 19:36:13;;;;;;;32.70;13.50;;;;;;;6.31;75.76;99249.17;24546;1343;3025316;-63
2022/12/23 19:38:43;;;;;;;40.60;16.60;;;;;;;6.18;75.49;99245.94;24484;1333;3029001;-69
2022/12/23 19:41:12;;;;;;;34.30;16.00;;;;;;;6.00;76.16;99246.73;24675;1333;3026165;-65
2022/12/23 19:43:43;;;;;;;32.10;16.00;;;;;;;5.75;77.00;99250.79;24969;1333;3025912;-66
2022/12/23 19:46:13;;;;;;;33.90;15.50;;;;;;;5.60;77.72;99254.92;24569;1334;3052670;-65
2022/12/23 19:48:42;;;;;;;35.00;16.00;;;;;;;5.51;78.10;99252.85;24568;1330;3026326;-65
2022/12/23 19:51:12;;;;;;;30.70;16.20;;;;;;;5.40;78.57;99254.04;24479;1333;3028265;-65
2022/12/23 19:53:41;;;;;;;30.50;14.00;;;;;;;5.34;79.17;99254.65;24617;1327;3025998;-66
2022/12/23 19:56:12;;;;;;;26.50;14.20;;;;;;;5.24;79.51;99254.73;24580;1326;3026605;-68
2022/12/23 19:58:42;;;;;;;30.40;14.80;;;;;;;5.16;79.62;99256.23;24516;1334;3052465;-66
2022/12/23 20:01:19;;;;;;;27.50;14.60;;;;;;;5.09;80.05;99257.05;24618;1337;3027149;-64
2022/12/23 20:03:48;;;;;;;17.40;8.30;;;;;;;5.12;80.14;99251.54;24511;1327;3070114;-66
2022/12/23 20:06:20;;;;;;;22.60;10.10;;;;;;;5.64;78.46;99255.77;24522;1333;3028054;-71
2022/12/23 20:08:49;;;;;;;21.30;11.50;;;;;;;6.11;76.44;99255.48;24617;1333;3026233;-69
2022/12/23 20:11:22;;;;;;;23.20;12.10;;;;;;;6.26;75.48;99260.69;24543;1334;3026115;-68
2022/12/23 20:13:52;;;;;;;25.10;11.40;;;;;;;6.28;74.87;99261.99;24569;1334;3050149;-65
2022/12/23 20:16:21;;;;;;;25.10;12.50;;;;;;;6.16;74.96;99262.04;24584;1328;3026068;-69
2022/12/23 20:18:50;;;;;;;26.80;13.00;;;;;;;5.99;75.74;99260.71;24540;1334;3027486;-67
2022/12/23 20:21:20;;;;;;;26.50;12.70;;;;;;;5.84;76.14;99260.81;24653;1332;3050010;-63
2022/12/23 20:23:49;;;;;;;26.70;13.70;;;;;;;5.66;76.73;99263.33;24578;1324;3028475;-65
2022/12/23 20:26:18;;;;;;;26.40;13.90;;;;;;;5.45;77.72;99264.23;24573;1333;3028599;-66
2022/12/23 20:28:49;;;;;;;27.10;13.40;;;;;;;5.31;78.23;99258.92;24607;1325;3050091;-65
2022/12/23 20:31:20;;;;;;;28.70;13.70;;;;;;;5.32;78.26;99256.27;24631;1324;3025892;-66
2022/12/23 20:33:50;;;;;;;28.80;13.50;;;;;;;5.27;78.50;99251.26;24527;1326;3026799;-65
2022/12/23 20:36:21;;;;;;;30.00;13.80;;;;;;;5.28;78.40;99250.03;24621;1326;3025408;-66
2022/12/23 20:38:51;;;;;;;29.50;14.80;;;;;;;5.18;78.42;99253.02;24509;1326;3026503;-65
2022/12/23 20:41:22;;;;;;;21.20;9.90;;;;;;;5.02;79.66;99250.76;24579;1340;3026214;-66
2022/12/23 20:43:51;;;;;;;17.40;9.90;;;;;;;5.54;78.17;99255.67;24450;1332;3053316;-64
2022/12/23 20:46:21;;;;;;;24.00;12.20;;;;;;;6.03;75.93;99254.76;24537;1333;3025432;-64
2022/12/23 20:48:50;;;;;;;25.40;12.00;;;;;;;6.07;75.14;99249.91;24512;1326;3053068;-66
2022/12/23 20:51:24;;;;;;;28.60;14.50;;;;;;;6.06;75.03;99246.83;24538;1327;3025727;-64
2022/12/23 20:53:54;;;;;;;30.10;14.60;;;;;;;5.83;75.59;99245.23;24546;1334;3056446;-63
2022/12/23 20:56:26;;;;;;;30.40;15.20;;;;;;;5.70;76.07;99249.80;24574;1324;3025970;-66
2022/12/23 20:59:00;;;;;;;31.80;15.90;;;;;;;5.45;76.75;99247.36;24477;1334;3029519;-63
2022/12/23 21:01:35;;;;;;;34.90;15.60;;;;;;;5.34;77.57;99242.29;24470;1326;3051207;-67
2022/12/23 21:04:06;;;;;;;32.20;16.10;;;;;;;5.31;77.53;99244.01;24514;1331;3051912;-65
2022/12/23 21:06:35;;;;;;;31.80;16.90;;;;;;;5.13;78.27;99238.17;24583;1326;3026441;-66
2022/12/23 21:09:05;;;;;;;30.50;16.80;;;;;;;5.10;78.76;99243.48;24513;1327;3028425;-65
2022/12/23 21:11:36;;;;;;;35.40;17.90;;;;;;;4.96;79.20;99244.39;24490;1340;3051442;-65
2022/12/23 21:14:06;;;;;;;37.30;18.00;;;;;;;4.93;79.23;99240.89;24574;1334;3026359;-63
2022/12/23 21:16:35;;;;;;;31.10;14.10;;;;;;;4.85;79.55;99237.03;24526;1334;3026306;-64
2022/12/23 21:19:06;;;;;;;28.00;12.70;;;;;;;5.36;78.33;99234.21;24490;1317;3027991;-66
2022/12/23 21:21:35;;;;;;;31.10;14.80;;;;;;;5.75;76.24;99234.77;24596;1332;3047706;-65
2022/12/23 21:24:05;;;;;;;29.80;15.10;;;;;;;5.92;75.61;99232.98;24515;1316;3026310;-63
2022/12/23 21:26:34;;;;;;;32.70;16.10;;;;;;;5.79;75.89;99230.98;24515;1334;3028657;-65
2022/12/23 21:29:05;;;;;;;33.30;16.70;;;;;;;5.67;76.15;99235.13;24492;1327;3028895;-65
2022/12/23 21:31:35;;;;;;;31.90;17.30;;;;;;;5.46;76.73;99233.46;24503;1324;3068656;-64
2022/12/23 21:34:04;;;;;;;36.40;17.00;;;;;;;5.34;77.35;99234.30;24525;1334;3029703;-66
2022/12/23 21:36:35;;;;;;;40.40;18.50;;;;;;;5.27;77.54;99233.57;24532;1333;3028642;-67
2022/12/23 21:39:04;;;;;;;43.10;19.30;;;;;;;5.22;77.77;99236.39;24531;1337;3025825;-65
2022/12/23 21:41:37;;;;;;;42.90;20.10;;;;;;;5.02;78.61;99228.88;24471;1337;3026769;-64
2022/12/23 21:44:06;;;;;;;37.50;19.40;;;;;;;5.03;78.75;99224.31;24568;1324;3026073;-65
2022/12/23 21:46:34;;;;;;;42.80;20.20;;;;;;;5.08;78.25;99228.44;24579;1326;3026485;-64
2022/12/23 21:49:04;;;;;;;35.70;19.90;;;;;;;4.97;78.88;99226.98;24544;1327;3053276;-67
2022/12/23 21:51:33;;;;;;;47.70;22.20;;;;;;;4.89;78.94;99227.84;24539;1330;3028045;-67
2022/12/23 21:54:01;;;;;;;41.90;17.10;;;;;;;4.77;79.62;99230.27;24594;1333;3050094;-65
2022/12/23 21:56:30;;;;;;;34.20;15.80;;;;;;;5.37;78.02;99225.48;24498;1332;3027906;-63
2022/12/23 21:59:08;;;;;;;38.70;17.70;;;;;;;5.86;75.54;99227.87;24562;1325;3054949;-64
2022/12/23 22:01:39;;;;;;;38.80;18.30;;;;;;;5.98;74.70;99227.18;24538;1332;3051834;-65
2022/12/23 22:04:08;;;;;;;38.80;19.30;;;;;;;5.94;74.45;99226.66;24509;1331;3026104;-64
2022/12/23 22:06:39;;;;;;;43.10;19.70;;;;;;;5.82;74.95;99226.33;24437;1333;3026742;-63
2022/12/23 22:09:09;;;;;;;43.60;19.00;;;;;;;5.68;75.29;99226.95;24540;1327;3052526;-67
2022/12/23 22:11:38;;;;;;;40.90;19.50;;;;;;;5.42;76.05;99231.04;24481;1334;3026139;-64
2022/12/23 22:14:09;;;;;;;46.20;20.10;;;;;;;5.41;76.32;99231.58;24491;1324;3025864;-63
2022/12/23 22:16:38;;;;;;;42.50;20.00;;;;;;;5.40;76.49;99232.66;24495;1334;3027868;-67
2022/12/23 22:19:08;;;;;;;36.40;17.90;;;;;;;5.37;76.56;99230.69;24553;1324;3026719;-63
2022/12/23 22:21:38;;;;;;;45.10;20.00;;;;;;;5.30;76.79;99228.07;24470;1327;3051113;-66
2022/12/23 22:24:07;;;;;;;42.50;20.00;;;;;;;5.18;77.25;99228.54;24481;1324;3028856;-65
2022/12/23 22:26:36;;;;;;;39.80;19.20;;;;;;;5.09;77.78;99225.10;24570;1324;3025752;-63
2022/12/23 22:29:05;;;;;;;35.00;18.50;;;;;;;5.04;77.86;99223.77;24477;1324;3050503;-64
2022/12/23 22:31:46;;;;;;;38.20;19.80;;;;;;;5.06;77.94;99221.77;24458;1334;3027748;-64
2022/12/23 22:34:17;;;;;;;44.20;20.10;;;;;;;4.92;78.18;99216.25;24572;1332;3050913;-64
2022/12/23 22:36:47;;;;;;;33.90;15.00;;;;;;;4.90;78.67;99219.65;24467;1327;3026821;-65
2022/12/23 22:39:17;;;;;;;24.10;11.70;;;;;;;5.47;77.19;99220.73;24532;1334;3026275;-63
2022/12/23 22:41:51;;;;;;;38.60;15.60;;;;;;;6.05;74.41;99213.45;24470;1335;3027548;-62
2022/12/23 22:44:20;;;;;;;31.70;15.60;;;;;;;6.01;74.00;99213.15;24481;1334;3026463;-61
2022/12/23 22:46:49;;;;;;;36.80;15.60;;;;;;;5.95;74.29;99208.86;24619;1334;3028406;-64
2022/12/23 22:49:18;;;;;;;38.80;17.80;;;;;;;5.82;74.33;99207.87;24550;1324;3026263;-63
2022/12/23 22:51:47;;;;;;;38.10;17.50;;;;;;;5.70;75.11;99212.45;24459;1333;3053229;-62
2022/12/23 22:54:16;;;;;;;35.80;17.20;;;;;;;5.65;75.30;99209.16;24484;1324;3026112;-64
2022/12/23 22:56:45;;;;;;;35.40;17.70;;;;;;;5.49;75.71;99207.08;24573;1326;3055569;-64
2022/12/23 22:59:19;;;;;;;37.30;18.20;;;;;;;5.37;76.17;99211.95;24497;1334;3025960;-63
2022/12/23 23:01:49;;;;;;;36.70;18.30;;;;;;;5.24;76.82;99208.51;24458;1334;3049683;-62
2022/12/23 23:04:18;;;;;;;35.20;17.80;;;;;;;5.22;77.03;99208.27;24573;1337;3025716;-64
2022/12/23 23:06:47;;;;;;;39.50;18.90;;;;;;;5.17;76.98;99209.30;24446;1334;3027504;-66
2022/12/23 23:09:17;;;;;;;39.40;19.30;;;;;;;5.11;77.39;99209.77;24519;1331;3049792;-63
2022/12/23 23:11:47;;;;;;;42.80;19.70;;;;;;;4.98;77.68;99204.41;24469;1333;3026243;-64
2022/12/23 23:14:17;;;;;;;37.80;17.20;;;;;;;4.92;78.15;99203.61;24485;1327;3026595;-63
2022/12/23 23:16:46;;;;;;;39.00;18.10;;;;;;;5.00;77.82;99204.81;24504;1333;3026734;-64
2022/12/23 23:19:18;;;;;;;41.90;19.20;;;;;;;4.88;78.22;99201.17;24426;1333;3026114;-64
2022/12/23 23:21:48;;;;;;;29.70;14.40;;;;;;;4.85;78.41;99207.36;24534;1326;3051941;-65
2022/12/23 23:24:17;;;;;;;28.90;13.20;;;;;;;5.36;77.14;99203.98;24482;1333;3028744;-63
2022/12/23 23:26:46;;;;;;;29.70;15.10;;;;;;;5.96;74.63;99204.86;24531;1325;3056434;-64
2022/12/23 23:29:15;;;;;;;36.50;18.00;;;;;;;5.81;74.48;99202.52;24564;1317;3025724;-61
2022/12/23 23:31:45;;;;;;;41.60;17.40;;;;;;;5.69;74.81;99199.92;24481;1338;3050218;-63
2022/12/23 23:34:14;;;;;;;38.40;18.40;;;;;;;5.65;75.14;99198.89;24590;1324;3026009;-62
2022/12/23 23:36:42;;;;;;;37.00;17.30;;;;;;;5.46;75.82;99200.08;24504;1334;3068667;-62
2022/12/23 23:39:11;;;;;;;37.30;17.10;;;;;;;5.29;76.57;99200.83;24517;1324;3027876;-62
2022/12/23 23:41:41;;;;;;;36.80;17.20;;;;;;;5.22;77.10;99200.96;24477;1324;3048449;-62
2022/12/23 23:44:11;;;;;;;44.60;18.50;;;;;;;5.26;77.24;99197.33;24512;1334;3027628;-61
2022/12/23 23:46:40;;;;;;;39.60;19.20;;;;;;;5.26;77.01;99198.89;24575;1324;3028283;-62
2022/12/23 23:49:09;;;;;;;43.80;18.60;;;;;;;5.13;77.58;99196.81;24483;1334;3048610;-63
2022/12/23 23:51:39;;;;;;;40.80;19.40;;;;;;;5.00;78.32;99190.59;24471;1334;3028160;-62
2022/12/23 23:54:08;;;;;;;45.80;19.90;;;;;;;4.99;78.58;99188.89;24499;1332;3051838;-62
2022/12/23 23:56:36;;;;;;;44.80;18.80;;;;;;;4.99;78.47;99191.31;24490;1324;3028807;-63
2022/12/23 23:59:06;;;;;;;41.30;19.50;;;;;;;4.95;78.83;99190.30;24502;1324;3051556;-62
